createdAt,value
2019-03-21T00:04:24.724Z,99.90
2019-03-21T00:09:30.675Z,99.90
2019-03-21T00:14:48.911Z,99.90
2019-03-21T00:19:54.867Z,99.90
2019-03-21T00:25:00.798Z,99.90
2019-03-21T00:30:11.095Z,99.90
2019-03-21T00:35:18.019Z,99.90
2019-03-21T00:40:26.644Z,99.90
2019-03-21T00:45:32.551Z,99.90
2019-03-21T00:50:38.424Z,99.90
2019-03-21T00:55:45.407Z,99.90
2019-03-21T01:00:53.423Z,99.90
2019-03-21T01:05:59.287Z,99.90
2019-03-21T01:11:05.155Z,99.90
2019-03-21T01:16:11.216Z,99.90
2019-03-21T01:21:17.095Z,99.90
2019-03-21T01:26:22.935Z,99.90
2019-03-21T01:31:28.820Z,99.90
2019-03-21T01:36:34.685Z,99.90
2019-03-21T01:41:40.550Z,99.90
2019-03-21T01:46:46.395Z,99.90
2019-03-21T01:51:52.450Z,99.90
2019-03-21T01:56:58.313Z,99.90
2019-03-21T02:02:04.157Z,99.90
2019-03-21T02:07:10.070Z,99.90
2019-03-21T02:12:15.918Z,99.90
2019-03-21T02:17:21.716Z,99.90
2019-03-21T02:22:27.572Z,99.90
2019-03-21T02:27:33.485Z,99.90
2019-03-21T02:32:39.295Z,99.90
2019-03-21T02:37:45.144Z,99.90
2019-03-21T02:42:50.996Z,99.90
2019-03-21T02:47:56.871Z,99.90
2019-03-21T02:53:02.868Z,99.90
2019-03-21T02:58:08.703Z,99.90
2019-03-21T03:03:14.555Z,99.90
2019-03-21T03:08:20.428Z,99.90
2019-03-21T03:13:26.304Z,99.90
2019-03-21T03:18:32.171Z,99.90
2019-03-21T03:23:38.041Z,99.90
2019-03-21T03:28:43.937Z,99.90
2019-03-21T03:33:49.849Z,99.90
2019-03-21T03:38:55.780Z,99.90
2019-03-21T03:49:06.497Z,99.90
2019-03-21T03:54:12.338Z,99.90
2019-03-21T03:59:18.325Z,99.90
2019-03-21T04:04:24.203Z,99.90
2019-03-21T04:09:30.192Z,99.90
2019-03-21T04:14:36.189Z,99.90
2019-03-21T04:19:42.239Z,99.90
2019-03-21T04:24:48.374Z,99.90
2019-03-21T04:29:54.233Z,99.90
2019-03-21T04:35:00.253Z,99.90
2019-03-21T04:40:07.976Z,99.90
2019-03-21T04:45:16.164Z,99.90
2019-03-21T04:50:25.014Z,99.90
2019-03-21T04:55:30.847Z,99.90
2019-03-21T05:00:37.063Z,99.90
2019-03-21T05:05:43.072Z,99.90
2019-03-21T05:10:48.983Z,99.90
2019-03-21T05:15:54.915Z,99.90
2019-03-21T05:21:00.841Z,99.90
2019-03-21T05:26:06.677Z,99.90
2019-03-21T05:31:19.358Z,99.90
2019-03-21T05:36:26.496Z,99.90
2019-03-21T05:41:33.123Z,99.90
2019-03-21T05:46:39.324Z,99.90
2019-03-21T05:51:45.599Z,99.90
2019-03-21T05:56:51.638Z,99.90
2019-03-21T06:01:57.418Z,99.90
2019-03-21T06:07:31.123Z,99.90
2019-03-21T06:12:47.369Z,99.90
2019-03-21T06:18:01.685Z,99.90
2019-03-21T06:23:25.755Z,99.90
2019-03-21T06:28:31.591Z,99.90
2019-03-21T06:33:37.431Z,99.90
2019-03-21T06:38:43.287Z,99.90
2019-03-21T06:43:49.143Z,99.90
2019-03-21T06:48:54.962Z,99.90
2019-03-21T06:54:00.779Z,99.90
2019-03-21T06:59:06.603Z,99.90
2019-03-21T07:04:12.442Z,99.90
2019-03-21T07:09:18.268Z,99.90
2019-03-21T07:14:24.119Z,99.90
2019-03-21T07:19:29.958Z,99.90
2019-03-21T07:24:35.797Z,99.90
2019-03-21T07:29:41.647Z,99.90
2019-03-21T07:34:47.499Z,99.90
2019-03-21T07:39:53.340Z,99.90
2019-03-21T07:44:59.169Z,98.80
2019-03-21T07:50:05.839Z,99.90
2019-03-21T07:55:12.867Z,99.90
2019-03-21T08:00:19.020Z,99.50
2019-03-21T08:05:24.932Z,97.10
2019-03-21T08:10:30.780Z,98.30
2019-03-21T08:15:37.901Z,99.90
2019-03-21T08:20:55.625Z,99.90
2019-03-21T08:25:51.424Z,99.90
2019-03-21T08:31:17.805Z,99.90
2019-03-21T08:36:23.629Z,95.10
2019-03-21T08:41:29.459Z,90.70
2019-03-21T08:46:35.285Z,91.40
2019-03-21T08:51:41.112Z,96.30
2019-03-21T08:56:47.035Z,91.60
2019-03-21T09:01:52.867Z,90.60
2019-03-21T09:06:58.704Z,85.60
2019-03-21T09:12:04.550Z,84.60
2019-03-21T09:17:10.382Z,91.50
2019-03-21T09:22:17.076Z,89.20
2019-03-21T09:27:22.895Z,87.10
2019-03-21T09:32:28.756Z,84.70
2019-03-21T09:37:34.599Z,84.70
2019-03-21T09:42:40.444Z,80.50
2019-03-21T09:47:46.311Z,80.70
2019-03-21T09:52:52.155Z,78.10
2019-03-21T09:57:58.284Z,73.20
2019-03-21T10:03:04.498Z,69.30
2019-03-21T10:08:10.322Z,68.30
2019-03-21T10:13:16.161Z,63.80
2019-03-21T10:18:21.986Z,60.50
2019-03-21T10:23:27.823Z,59.90
2019-03-21T10:28:33.639Z,60.00
2019-03-21T10:33:39.487Z,58.40
2019-03-21T10:38:45.324Z,55.30
2019-03-21T10:43:51.176Z,50.30
2019-03-21T10:48:57.017Z,51.70
2019-03-21T10:54:02.848Z,50.00
2019-03-21T10:59:08.712Z,51.10
2019-03-21T11:04:14.556Z,47.70
2019-03-21T11:09:20.428Z,47.20
2019-03-21T11:14:26.255Z,46.50
2019-03-21T11:19:32.080Z,44.70
2019-03-21T11:24:37.951Z,45.70
2019-03-21T11:29:43.863Z,46.30
2019-03-21T11:34:49.715Z,43.20
2019-03-21T11:39:55.556Z,42.10
2019-03-21T11:45:01.423Z,42.60
2019-03-21T11:50:07.579Z,43.30
2019-03-21T11:55:13.450Z,42.10
2019-03-21T12:00:19.291Z,39.70
2019-03-21T12:05:25.192Z,41.50
2019-03-21T12:10:31.048Z,40.40
2019-03-21T12:15:36.880Z,40.30
2019-03-21T12:20:42.711Z,39.90
2019-03-21T12:25:48.549Z,41.60
2019-03-21T12:30:54.457Z,41.70
2019-03-21T12:36:00.287Z,39.30
2019-03-21T12:41:06.121Z,38.50
2019-03-21T12:46:11.966Z,38.30
2019-03-21T12:51:17.799Z,38.60
2019-03-21T12:56:23.615Z,39.40
2019-03-21T13:01:29.495Z,39.30
2019-03-21T13:06:35.353Z,37.20
2019-03-21T13:11:41.212Z,37.70
2019-03-21T13:16:47.051Z,38.50
2019-03-21T13:21:52.902Z,39.10
2019-03-21T13:27:00.244Z,38.90
2019-03-21T13:32:06.299Z,38.40
2019-03-21T13:37:12.139Z,36.50
2019-03-21T13:42:17.908Z,40.60
2019-03-21T13:47:23.797Z,37.30
2019-03-21T13:52:29.621Z,37.40
2019-03-21T13:57:35.483Z,36.20
2019-03-21T14:02:42.323Z,34.40
2019-03-21T14:07:48.232Z,35.80
2019-03-21T14:12:54.068Z,34.90
2019-03-21T14:17:59.906Z,37.60
2019-03-21T14:23:16.416Z,36.20
2019-03-21T14:28:13.230Z,36.80
2019-03-21T14:33:19.016Z,36.40
2019-03-21T14:38:26.601Z,34.40
2019-03-21T14:43:32.528Z,34.20
2019-03-21T14:48:38.380Z,32.30
2019-03-21T14:53:44.217Z,34.20
2019-03-21T14:58:51.126Z,33.80
2019-03-21T15:03:56.981Z,33.10
2019-03-21T15:09:02.827Z,33.40
2019-03-21T15:14:09.652Z,34.30
2019-03-21T15:19:15.553Z,35.10
2019-03-21T15:24:21.430Z,32.60
2019-03-21T15:29:27.275Z,33.90
2019-03-21T15:34:33.209Z,35.50
2019-03-21T15:39:39.048Z,31.90
2019-03-21T15:44:44.904Z,31.70
2019-03-21T15:49:50.811Z,34.70
2019-03-21T15:54:56.659Z,33.30
2019-03-21T16:00:02.500Z,33.40
2019-03-21T16:05:08.731Z,34.10
2019-03-21T16:10:14.556Z,35.00
2019-03-21T16:15:20.401Z,34.20
2019-03-21T16:20:26.236Z,36.40
2019-03-21T16:25:32.108Z,39.40
2019-03-21T16:30:37.995Z,42.10
2019-03-21T16:35:43.912Z,43.70
2019-03-21T16:40:49.888Z,45.70
2019-03-21T16:45:55.719Z,47.80
2019-03-21T16:51:03.099Z,48.40
2019-03-21T16:56:09.307Z,47.80
2019-03-21T17:01:17.786Z,49.60
2019-03-21T17:06:27.434Z,50.00
2019-03-21T17:11:36.023Z,50.70
2019-03-21T17:16:43.513Z,51.90
2019-03-21T17:21:49.854Z,53.50
2019-03-21T17:26:56.099Z,54.00
2019-03-21T17:32:02.135Z,52.40
2019-03-21T17:37:08.385Z,54.60
2019-03-21T17:42:14.401Z,53.50
2019-03-21T17:47:20.373Z,55.90
2019-03-21T17:52:26.374Z,54.30
2019-03-21T17:57:34.596Z,54.10
2019-03-21T18:02:40.489Z,53.50
2019-03-21T18:07:46.982Z,54.40
2019-03-21T18:12:53.690Z,53.00
2019-03-21T18:18:00.028Z,48.90
2019-03-21T18:23:06.162Z,48.40
2019-03-21T18:28:12.149Z,47.00
2019-03-21T18:33:19.300Z,46.30
2019-03-21T18:38:25.343Z,47.50
2019-03-21T18:43:31.114Z,47.60
2019-03-21T18:48:36.989Z,47.80
2019-03-21T18:53:42.827Z,49.50
2019-03-21T18:58:48.685Z,51.20
2019-03-21T19:03:54.637Z,53.10
2019-03-21T19:09:00.698Z,54.70
2019-03-21T19:14:08.261Z,56.40
2019-03-21T19:19:14.473Z,56.40
2019-03-21T19:24:20.732Z,57.90
2019-03-21T19:29:27.020Z,59.20
2019-03-21T19:34:32.984Z,61.50
2019-03-21T19:39:39.190Z,63.60
2019-03-21T19:44:45.175Z,64.60
2019-03-21T19:49:51.013Z,67.00
2019-03-21T19:54:57.919Z,70.00
2019-03-21T20:00:04.204Z,73.20
2019-03-21T20:05:10.639Z,75.20
2019-03-21T20:10:17.290Z,78.20
2019-03-21T20:15:23.747Z,81.20
2019-03-21T20:20:31.135Z,85.70
2019-03-21T20:25:42.663Z,88.60
2019-03-21T20:30:44.649Z,90.80
2019-03-21T20:35:51.027Z,92.30
2019-03-21T20:40:57.572Z,92.50
2019-03-21T20:46:03.480Z,94.00
2019-03-21T20:51:09.307Z,95.10
2019-03-21T20:56:15.279Z,97.00
2019-03-21T21:01:21.192Z,99.90
2019-03-21T21:06:27.115Z,99.90
2019-03-21T21:11:35.219Z,99.90
2019-03-21T21:16:41.194Z,99.90
2019-03-21T21:21:47.855Z,99.90
2019-03-21T21:26:53.803Z,99.90
2019-03-21T21:31:59.798Z,99.90
2019-03-21T21:37:05.756Z,99.90
2019-03-21T21:42:11.592Z,99.90
2019-03-21T21:47:17.424Z,99.90
2019-03-21T21:52:23.351Z,99.90
2019-03-21T21:57:29.181Z,99.90
2019-03-21T22:02:35.012Z,99.90
2019-03-21T22:07:41.016Z,99.90
2019-03-21T22:12:46.881Z,99.90
2019-03-21T22:17:52.800Z,99.90
2019-03-21T22:22:59.104Z,99.90
2019-03-21T22:28:05.039Z,99.90
2019-03-21T22:33:10.938Z,99.90
2019-03-21T22:38:16.862Z,99.90
2019-03-21T22:43:23.031Z,99.90
2019-03-21T22:48:29.178Z,99.90
2019-03-21T22:53:35.042Z,99.90
2019-03-21T22:58:40.926Z,99.90
2019-03-21T23:03:46.895Z,99.90
2019-03-21T23:08:52.735Z,99.90
2019-03-21T23:13:58.575Z,99.90
2019-03-21T23:19:04.408Z,99.90
2019-03-21T23:24:10.252Z,99.90
2019-03-21T23:29:16.179Z,99.90
2019-03-21T23:34:22.043Z,99.90
2019-03-21T23:39:27.859Z,99.90
2019-03-21T23:44:33.754Z,99.90
2019-03-21T23:49:39.531Z,99.90
2019-03-21T23:54:45.363Z,99.90
2019-03-21T23:59:51.190Z,99.90
